Direkt zum Seiteninhalt

Sie sind hier: 18. Eibenstocker 3-Talsperren-Marathon - Ergebnisliste vom 14.09.2013

Ergebnisarchiv > 2013
KURZSTRECKE 8 km LAUF
PlatzPl.mPl.wStnr.Name,VornameVereinGJAKAkmAkwEndzeitRückst.WB
11 4110Dressel-Putz, PhilippLG Vogtland98mU161 0:29:580:00:004
22 4141Krommer, SörenVorwärts Zwickau75M351 0:31:100:01:124
33 4140Meyer, MarcusReichenbach76M352 0:31:360:01:384
44 4139Oelsner, HeikoLG Vogtland71M401 0:32:570:02:594
55 4120Temper, ErikLATV Plauen98mU162 0:33:010:03:034
6 14134Hafner, SusanneTSG Söflingen85WHK 10:33:350:03:374
76 4133Lorenz, SwenSG Neukirchen/Erzg.72M402 0:33:550:03:574
87 4086Flechsig, TobiasTSV Elektronik Gornsdorf88MHK1 0:34:340:04:364
98 4130Kaden, DietmarLC Oelsnitz-Erzgeb.60M501 0:34:540:04:564
109 4143Kruppa, SvenTSV Elektronik Gornsdorf71M403 0:35:300:05:324
1110 4046Straßburg, RingoLG Vogtland73M404 0:35:370:05:394
1211 4089Schicker, TimVital Schneeberg90MHK2 0:36:010:06:034
1312 4081Reichel, DirkTeam PSS Aue78M353 0:36:060:06:084
1413 4063von Müller, JakobSC Chemnitz Triathlon4mU101 0:36:190:06:214
1514 4144Lindner, SvenSchneeberg85MHK3 0:36:200:06:224
1615 4040Scholz, GeorgLäuferbund 90 Schwarzenberg93MHK4 0:36:360:06:384
17 24125Gründler, AnneSG-Adelsberg89WHK 20:36:570:06:594
1816 4024Fiebig, OlafAlbernau64M451 0:36:590:07:014
1917 4065von Müller, JohannesSC Chemnitz Triathlon mU141 0:37:210:07:234
2018 4042Rollinger, ErnstLäuferbund 90 Schwarzenberg51M601 0:37:240:07:264
2119 4109Heinz, BenjaminEibenstock96mU181 0:37:260:07:284
2220 4069Speri, NiclasSkiverein Stützengrün2mU121 0:37:370:07:394
23 34043Barz, PaulineLG Mittweida98wU16 10:37:560:07:584
2421 4084May, ChristophTSV 1872 Pobershau44M651 0:38:220:08:244
2522 4103Liebold, DominikEibenstock96mU182 0:38:300:08:324
2623 4099Bretschneider, MaikZwickau96mU183 0:38:310:08:334
2724 4039Schramm, DietmarLäuferbund 90 Schwarzenberg56M551 0:38:380:08:404
2825 4062Hildebrand, VolkmarPulsschlag Erzgebirge Neuhausen52M602 0:38:580:09:004
29 44142Stein, AnnettTSV Elektronik Gornsdorf72W40 10:38:590:09:014
30 54067Gelfert, LisaSkiverein Schönheide93WHK 30:39:520:09:544
3126 4021Hoyer, MaximilianBad Langensalza97mU184 0:40:320:10:344
3227 4145Walther, JörgLaufgruppe Pomalos62M502 0:40:340:10:364
3328 4102Neumann, HeikoSV Stützengrün72M405 0:40:430:10:454
3429 4111Piechotta, BerndLAC Chemnitz46M652 0:40:460:10:484
35 64087Kempe, MelanieTSV Flöha 184896wU18 10:40:490:10:514
3630 4079Knorr, JoachimSV Vorwärts Zwickau40M701 0:40:500:10:524
3731 4044Brühl, MicheleLG Thalheim/E.98mU163 0:41:020:11:044
3832 4115Sachsenröder, KayFalkenstein71M406 0:41:060:11:084
3933 4119Hörhold, ClemensSSV Leutzsch99mU164 0:42:030:12:054
4034 4003Möckel, ManuelEibenstock95mU201 0:42:040:12:064
4135 4006Wolffram, TristanObertshausen89MHK5 0:42:150:12:174
42 74047Stricker, NadineLV 90 Erzgebirge95wU20 10:42:270:12:294
4336 4080Uhlig, FrankTeam Haus Wiesenheim Dorf Tirol63M503 0:42:290:12:314
4437 4128Wisotzke, FelixObertshausen89MHK6 0:42:310:12:334
4538 4010Jaretzki, LotharZschorlau58M552 0:42:340:12:364
4639 4017Böhme, CarstenDresden90MHK7 0:42:370:12:394
47 84051Steinert, LindaLV Limbach 200097wU18 20:42:430:12:454
4840 4073Roder, RalfSSV Blau-Weiß Gersdorf70M407 0:42:460:12:484
4941 4077Riedel, LudwigSV Stützengrün95mU202 0:43:030:13:054
5042 4076Mothes, WolfgangSV Reumtengrün48M653 0:43:100:13:124
5143 4056Thorand, MatthiasOmeras81M301 0:43:140:13:164
52 94007Langer, KatrinThum69W40 20:43:330:13:354
53 104068Anus, MelanieSkiverein Schönheide93WHK 40:43:570:13:594
54 114041Gnichtel, JeanetteLäuferbund 90 Schwarzenberg70W40 30:44:060:14:084
5544 4005Schmidt, UweSchönheide71M408 0:44:420:14:444
5645 4048Glöckner, WolfgangLV Limbach 200040M702 0:44:580:15:004
5746 4049Barz, HolgerLV Limbach 200073M409 0:44:590:15:014
5847 4137Möckel, FrankEibenstock70M4010 0:45:020:15:044
5948 4058Schmutzler, MichaelOmeras79M302 0:45:190:15:214
60 124064von Müller, PaulineSC Chemnitz Triathlon99wU16 20:45:400:15:424
61 134045Brühl, AnkeLG Thalheim/E.72W40 40:45:430:15:454
62 144066Rehn, SteffiSG 53 Niederlichtenau68W45 10:45:570:15:594
63 154097Schreier, SilvanaRadwelt Lößnitz82W30 10:46:060:16:084
6449 4129Gertig, TimoLV Limbach 200077M354 0:46:080:16:104
65 164108Schulz, CirstenPotsdamer Laufclub64W45 20:46:090:16:114
6650 4004Lenk, UlliSchönheide61M504 0:46:110:16:134
6751 4052Seidel, UlrichMarathonverein Eibenstock67M452 0:46:140:16:164
6852 4001Scheibner, DanielSchönheide90MHK8 0:46:170:16:194
69 174085Lehnert, KerstinTSV 1872 Pobershau64W45 30:46:210:16:234
7053 4053Herrmann, UlrichMarathonverein Eibenstock54M553 0:46:260:16:284
71 184060Bauer, FranziskaBad Schlema83W30 20:46:340:16:364
7254 4092Haupt, WilfriedZschorlau39M703 0:46:350:16:374
73 194029Böttcher, InesFCE Aue66W45 40:46:530:16:554
7455 4113Unger, JörgVital Schneeberg59M505 0:46:560:16:584
7556 4057Knauf, OliverOmeras84MHK9 0:47:040:17:064
7657 4032Hahn, MichaelJunge Gemeinde Eibenstock90MHK10 0:47:080:17:104
7758 4011Ogriseck, SirkoRödermark78M355 0:47:130:17:154
7859 4030Roßbach, RalphFreizeit Rodewisch49M603 0:47:200:17:224
79 204132Fahnert, InaHandballverein Grüna81W30 30:47:330:17:354
8060 4078Barthel, GisbertSV Vorwärts Zwickau56M554 0:47:420:17:444
81 214121Obermann, KatrinWasserwacht Plauen71W40 50:47:490:17:514
82 224013Leichsenring, MarlenZschorlau83W30 40:48:230:18:254
83 234059Seidel, KerstinSchneeberg63W50 10:48:270:18:294
84 244090Urban, BarbaraVS RÖTHENBACH/VOGTL.63W50 20:48:500:18:524
85 254094Mantey, DanutaGrimma50W60 10:48:570:18:594
8661 4018Bernstein, ChristianKirchberg84MHK11 0:49:000:19:024
87 264106Lorenz, UlrikeVSC Klingenthal68W45 50:49:090:19:114
8862 4070Menning, Dag PaulSkizunft Dresden3mU122 0:49:170:19:194
8963 4123Haupt, HolgerFC Erzgebirge Aue63M506 0:49:440:19:464
9064 4116Pieper, FrankNiederwiesa63M507 0:49:470:19:494
91 274083Ehnert, JennyTSV 1872 Pobershau94wU20 20:49:510:19:534
92 284088Herrmann, KathrinVital Schneeberg63W50 30:50:100:20:124
93 294034Frölich, ClaudiaKraftsportverein Sosa85WHK 50:50:340:20:364
94 304023Fiebig, GabiAlbernau64W45 60:50:350:20:374
95 314022Baumann, GabiAffalter63W50 40:50:380:20:404
9665 4126Wirth, StefanThalheim54M555 0:50:390:20:414
97 324105Amlung, GritLeipzig79W30 50:50:420:20:444
98 334019Bennewitz, AnjaChemnitz87WHK 60:50:510:20:534
9966 4101Pecher, ThomasErzgebirgssparkasse69M4011 0:51:050:21:074
10067 4002Müller, JensZschorlau64M453 0:51:130:21:154
10168 4036Blechschmidt, UweKraftsportverein Sosa76M356 0:51:290:21:314
102 344026Gropp, IsabellaDJSV Pechtelsgrün86WHK 70:51:580:22:004
103 354014Gorka, KatrinDresden66W45 70:52:240:22:264
10469 4016Dickescheid, StephanLauter-Bernsbach53M604 0:53:170:23:194
10570 4118Huber, JulianVital Schneeberg99mU165 0:54:240:24:264
10671 4135Möckel, MaxEibenstock94mU203 0:54:350:24:374
10772 4033Seidel, EricJunge Gemeinde Eibenstock99mU166 0:54:370:24:394
10873 4074Bartl, RainerSUL Lößnitz36M751 0:54:460:24:484
109 364071Kubitza, Annesport-werk.net Annaberg84WHK 80:55:360:25:384
110 374100Krebs, MartinaGera61W50 50:55:560:25:584
111 384098Rosentreter, KathrinEibenstock61W50 60:56:010:26:034
112 394031Hahn, DanielaJunge Gemeinde Eibenstock90WHK 90:56:470:26:494
113 404028Schirmer, BarbaraFCE Aue62W50 70:56:490:26:514
11474 4117Huber, AlbertVital Schneeberg2mU123 0:58:220:28:244
115 414008Krühne, NicolaBad Köstritz63W50 80:58:400:28:424
116 424000Häcker, UteEibenstock /OT Sosa64W45 80:59:360:29:384
117 434124Haupt, HeikeFC Erzgebirge Aue63W50 90:59:420:29:444
118 444009Seidel, KatjaSchneeberg83W30 60:59:470:29:494
119 454136Möckel, AnnaEibenstock98wU16 31:00:120:30:144
12075 4075Müller, ReinhardSV Naunhof55M556 1:00:160:30:184
12176 4112Riedel, Karl-JürgenESV Lok Zwickau45M654 1:01:110:31:134
12277 4055Kraut, HaraldChemnitz29M80+1 1:01:300:31:324
12378 4082Braun, JoachimTG Obertshausen51M605 1:01:440:31:464
124 464025Frenzel, KatrinDAV Gera75W35 11:03:120:33:144
125 474114Bader, ClaudiaLimbach-Oberfrohna78W35 21:11:540:41:564
126 484061Schmidt, SylkePulsnitz64W45 91:14:110:44:134
12779 4091Strebe, Karl-HeinzSchneeberg41M704 1:15:370:45:394
Zurück zum Seiteninhalt